Aérodrome :
LOGIN :

S'inscrire | Disclaimer

   EN    FR    IT 

 










Légende :    VFR   VFR Marginal   IFR   IFR Intensif   IFR Très Intensif
Visi : 
Plafond : 
>= 8 km
>= 3000ft
5 à 8 km
1000 à 3000 ft
1500m à 5 km
500 à 1000 ft
800 à 1500m
200 à 500 ft
< 800m
< 200 ft
Symboles :   Orages  Brouillard  Fortes neiges  Fortes précipitations  Vent > 20 kt
SIGMETs :   Divers  Orages  Givrage  Turbulence  Onde Orograph.  Cendres Volcan.







- Altitude de l'aérodrome : 1079 ft


ETIK - Illesheim Air Base

DERNIER METAR :
  • 171614Z 26006KT 4000 BR BKN006 OVC025 04/04 A3026 RMK AO2A RAE1559 BKN V OVC SLP263 $

METARs EXPIRÉS :
  • 171559Z COR AUTO 26010KT 4000 BR OVC007 04/04 A3025 RMK AO2A RAE59 SLP260 $ COR 1608
  • 171556Z 26012KT 4000 -RA BR OVC007 04/04 A3025 RMK RAB31 SLP260 P0000 T00370037 $
  • 171531Z 25010KT 5000 -RA OVC008 04/04 A3024 RMK AO2A RAB31 CIG 008V010 SLP256 $
  • 171459Z AUTO 24010KT 9999 OVC010 05/05 A3021 RMK AO2 SLP246 $
  • 171456Z AUTO 24010KT 9999 OVC011 05/05 A3021 RMK AO2 SLP246 T00460046 52017 $
  • 171356Z AUTO 22006KT 9999 OVC013 05/05 A3019 RMK AO2 SLP239 T00480048 $

TAF AMD TAF ETIK
Valide du 17 à 15h jusqu'au 18 à 20h UTC


171558Z 1715/1820 23006KT 8000 -SHRA OVC008 QNH3019INS
BECMG 1721/1722 VRB06KT 6000 BR SCT003 BKN006 QNH3025INS
BECMG 1802/1803 VRB06KT 6000 BR SCT001 BKN005 QNH3033INS
BECMG 1811/1812 15009KT 9999 NSW SCT010 BKN030 QNH3023INS
BECMG 1817/1818 13009KT 9999 SCT005 BKN010 QNH3019INS TX05/1812Z TN01/1802Z
Pas de NOTAMs connus pour ce terrain.



MET'MAP, la Météo Aéronautique d'un coup d'oeil ! - Copyright ORBIFLY Décembre 2007 - Disclaimer

ORBIFLY MET'MAP TEAM :

Programmation & Développement : Alexandra Zaïnal
Conception & Développement : Baudouin d'Aumeries
Co-Programmation & Développement : Marc-Olivier Méhu
Soutien technique & logistique : Manuel Goepfert

Contact : metmap@orbifly.com




SOURCES & CREDITS :

   NOAA